createdAt,value
2018-07-07T00:00:35.777Z,12.67
2018-07-07T00:03:12.450Z,15.10
2018-07-07T00:05:42.108Z,14.83
2018-07-07T00:08:13.519Z,12.33
2018-07-07T00:10:41.731Z,16.47
2018-07-07T00:13:16.772Z,14.30
2018-07-07T00:15:45.527Z,15.60
2018-07-07T00:18:26.548Z,11.50
2018-07-07T00:20:55.681Z,14.23
2018-07-07T00:23:24.300Z,13.60
2018-07-07T00:25:53.026Z,13.33
2018-07-07T00:28:22.077Z,15.23
2018-07-07T00:30:51.093Z,13.00
2018-07-07T00:33:26.306Z,15.87
2018-07-07T00:35:55.165Z,16.47
2018-07-07T00:38:36.375Z,14.80
2018-07-07T00:41:05.135Z,14.07
2018-07-07T00:43:33.879Z,13.07
2018-07-07T00:46:02.376Z,15.43
2018-07-07T00:48:31.908Z,14.90
2018-07-07T00:51:00.640Z,16.27
2018-07-07T00:53:34.115Z,14.47
2018-07-07T00:56:02.895Z,19.33
2018-07-07T00:58:35.981Z,15.93
2018-07-07T01:01:04.125Z,13.93
2018-07-07T01:03:37.637Z,15.70
2018-07-07T01:06:05.833Z,16.93
2018-07-07T01:08:40.960Z,16.30
2018-07-07T01:11:09.839Z,15.77
2018-07-07T01:16:11.588Z,15.70
2018-07-07T01:18:40.121Z,18.10
2018-07-07T01:21:08.892Z,17.50
2018-07-07T01:23:37.668Z,18.20
2018-07-07T01:26:06.159Z,17.47
2018-07-07T01:28:35.016Z,22.10
2018-07-07T01:31:03.863Z,14.07
2018-07-07T01:33:33.569Z,22.63
2018-07-07T01:36:02.069Z,18.53
2018-07-07T01:38:30.832Z,22.17
2018-07-07T01:41:00.433Z,17.10
2018-07-07T01:43:29.084Z,17.83
2018-07-07T01:46:02.339Z,22.90
2018-07-07T01:48:31.175Z,18.03
2018-07-07T01:51:03.745Z,21.27
2018-07-07T01:53:32.812Z,15.53
2018-07-07T01:56:05.289Z,19.50
2018-07-07T01:58:33.455Z,21.03
2018-07-07T02:01:02.774Z,22.17
2018-07-07T02:03:31.143Z,17.37
2018-07-07T02:06:00.053Z,18.80
2018-07-07T02:08:28.520Z,18.93
2018-07-07T02:10:56.915Z,19.23
2018-07-07T02:13:25.213Z,17.07
2018-07-07T02:15:53.751Z,20.33
2018-07-07T02:18:21.927Z,21.63
2018-07-07T02:20:50.781Z,21.23
2018-07-07T02:23:21.235Z,19.93
2018-07-07T02:25:49.644Z,17.60
2018-07-07T02:28:22.231Z,17.53
2018-07-07T02:30:50.979Z,21.17
2018-07-07T02:33:23.794Z,14.67
2018-07-07T02:35:52.118Z,19.00
2018-07-07T02:38:20.672Z,17.63
2018-07-07T02:40:49.395Z,16.93
2018-07-07T02:43:17.617Z,17.53
2018-07-07T02:45:46.184Z,18.23
2018-07-07T02:48:14.343Z,18.70
2018-07-07T02:50:42.682Z,19.70
2018-07-07T02:53:10.871Z,17.27
2018-07-07T02:55:39.404Z,17.87
2018-07-07T02:58:08.184Z,16.30
2018-07-07T03:00:49.609Z,16.80
2018-07-07T03:03:18.219Z,18.23
2018-07-07T03:05:46.448Z,15.33
2018-07-07T03:08:14.681Z,18.70
2018-07-07T03:10:47.410Z,17.37
2018-07-07T03:13:15.595Z,19.93
2018-07-07T03:15:48.724Z,18.17
2018-07-07T03:18:17.367Z,19.53
2018-07-07T03:20:52.057Z,25.30
2018-07-07T03:23:20.269Z,19.60
2018-07-07T03:25:54.137Z,17.60
2018-07-07T03:28:22.657Z,20.40
2018-07-07T03:30:55.156Z,18.30
2018-07-07T03:33:23.647Z,16.37
2018-07-07T03:35:52.192Z,17.43
2018-07-07T03:38:20.680Z,18.80
2018-07-07T03:40:49.191Z,19.00
2018-07-07T03:43:17.395Z,18.33
2018-07-07T03:45:45.606Z,16.97
2018-07-07T03:48:14.077Z,16.37
2018-07-07T03:50:42.311Z,18.37
2018-07-07T03:53:11.067Z,17.47
2018-07-07T03:55:39.668Z,16.60
2018-07-07T03:58:13.219Z,17.77
2018-07-07T04:00:41.423Z,19.00
2018-07-07T04:03:14.557Z,20.90
2018-07-07T04:05:42.811Z,21.57
2018-07-07T04:08:15.441Z,20.37
2018-07-07T04:10:43.915Z,19.03
2018-07-07T04:13:12.495Z,18.97
2018-07-07T04:15:47.847Z,19.17
2018-07-07T04:18:25.653Z,16.40
2018-07-07T04:20:53.841Z,14.67
2018-07-07T04:23:26.989Z,16.57
2018-07-07T04:25:55.585Z,18.50
2018-07-07T04:28:28.066Z,19.07
2018-07-07T04:30:56.871Z,16.83
2018-07-07T04:33:30.423Z,18.17
2018-07-07T04:35:58.594Z,15.23
2018-07-07T04:38:32.344Z,16.40
2018-07-07T04:41:00.555Z,15.13
2018-07-07T04:43:33.656Z,14.10
2018-07-07T04:46:02.541Z,16.20
2018-07-07T04:48:34.747Z,20.93
2018-07-07T04:51:03.035Z,16.00
2018-07-07T04:53:31.246Z,14.67
2018-07-07T04:55:59.808Z,17.40
2018-07-07T04:58:28.385Z,15.03
2018-07-07T05:00:56.584Z,16.20
2018-07-07T05:03:24.752Z,17.57
2018-07-07T05:05:53.668Z,16.17
2018-07-07T05:08:21.845Z,14.70
2018-07-07T05:10:50.351Z,16.23
2018-07-07T05:13:19.174Z,18.80
2018-07-07T05:15:51.571Z,19.90
2018-07-07T05:18:20.166Z,15.77
2018-07-07T05:20:53.657Z,16.83
2018-07-07T05:23:22.539Z,18.13
2018-07-07T05:25:55.250Z,16.90
2018-07-07T05:28:24.314Z,14.43
2018-07-07T05:30:52.656Z,14.77
2018-07-07T05:33:21.259Z,16.90
2018-07-07T05:35:51.889Z,14.40
2018-07-07T05:38:20.507Z,14.50
2018-07-07T05:42:18.964Z,16.07
2018-07-07T05:44:47.331Z,14.97
2018-07-07T05:47:15.569Z,14.67
2018-07-07T05:49:44.033Z,19.67
2018-07-07T05:52:13.334Z,15.40
2018-07-07T05:54:41.867Z,17.47
2018-07-07T05:57:16.258Z,15.90
2018-07-07T05:59:44.472Z,14.30
2018-07-07T06:02:17.805Z,20.82
2018-07-07T06:04:46.613Z,14.00
2018-07-07T06:07:21.982Z,16.12
2018-07-07T06:09:50.780Z,16.02
2018-07-07T06:12:23.454Z,23.15
2018-07-07T06:14:52.595Z,16.05
2018-07-07T06:17:24.841Z,18.98
2018-07-07T06:19:54.620Z,19.98
2018-07-07T06:22:27.343Z,16.93
2018-07-07T06:24:55.852Z,20.35
2018-07-07T06:27:28.831Z,20.15
2018-07-07T06:29:57.339Z,21.12
2018-07-07T06:32:32.150Z,19.23
2018-07-07T06:35:01.517Z,16.20
2018-07-07T06:37:35.211Z,14.13
2018-07-07T06:40:03.763Z,12.50
2018-07-07T06:42:39.035Z,10.20
2018-07-07T06:45:07.683Z,13.20
2018-07-07T06:47:48.963Z,12.27
2018-07-07T06:50:18.811Z,12.27
2018-07-07T06:52:48.175Z,13.13
2018-07-07T06:55:16.398Z,19.00
2018-07-07T06:57:45.402Z,51.95
2018-07-07T07:00:13.812Z,17.40
2018-07-07T07:02:46.134Z,18.15
2018-07-07T07:05:14.881Z,18.87
2018-07-07T07:10:16.354Z,17.67
2018-07-07T07:12:44.819Z,21.35
2018-07-07T07:15:13.028Z,14.55
2018-07-07T07:17:42.598Z,19.27
2018-07-07T07:20:11.379Z,20.80
2018-07-07T07:22:39.998Z,17.77
2018-07-07T07:25:08.816Z,16.70
2018-07-07T07:27:37.367Z,29.12
2018-07-07T07:30:06.197Z,34.30
2018-07-07T07:32:34.718Z,25.37
2018-07-07T07:35:07.244Z,26.87
2018-07-07T07:37:36.314Z,23.05
2018-07-07T07:40:17.174Z,26.93
2018-07-07T07:42:46.526Z,20.92
2018-07-07T07:45:15.027Z,16.85
2018-07-07T07:47:43.283Z,18.15
2018-07-07T07:50:15.045Z,20.43
2018-07-07T07:52:44.689Z,18.30
2018-07-07T07:55:16.072Z,18.50
2018-07-07T07:57:45.683Z,16.27
2018-07-07T08:00:18.754Z,15.48
2018-07-07T08:02:47.009Z,21.65
2018-07-07T08:05:19.853Z,17.80
2018-07-07T08:07:48.335Z,11.85
2018-07-07T08:10:20.706Z,15.25
2018-07-07T08:12:49.180Z,12.03
2018-07-07T08:15:18.653Z,10.40
2018-07-07T08:17:46.935Z,11.12
2018-07-07T08:20:15.137Z,11.43
2018-07-07T08:22:46.987Z,11.50
2018-07-07T08:25:32.143Z,10.35
2018-07-07T08:28:00.925Z,9.40
2018-07-07T08:30:45.608Z,14.80
2018-07-07T08:33:14.104Z,13.53
2018-07-07T08:35:43.682Z,12.13
2018-07-07T08:38:14.517Z,9.30
2018-07-07T08:40:43.126Z,11.50
2018-07-07T08:43:12.433Z,12.98
2018-07-07T08:45:43.191Z,14.20
2018-07-07T08:48:12.507Z,14.23
2018-07-07T08:50:46.743Z,12.75
2018-07-07T08:53:15.579Z,8.13
2018-07-07T08:55:47.639Z,9.18
2018-07-07T08:58:15.975Z,12.07
2018-07-07T09:00:56.579Z,13.78
2018-07-07T09:03:25.064Z,14.60
2018-07-07T09:05:54.314Z,16.97
2018-07-07T09:08:22.598Z,11.12
2018-07-07T09:11:04.131Z,10.03
2018-07-07T09:13:32.819Z,8.80
2018-07-07T09:16:02.696Z,9.05
2018-07-07T09:18:31.207Z,15.78
2018-07-07T09:21:01.165Z,12.85
2018-07-07T09:23:30.159Z,9.95
2018-07-07T09:26:12.423Z,11.90
2018-07-07T09:28:43.347Z,10.72
2018-07-07T09:31:12.938Z,10.93
2018-07-07T09:33:41.111Z,8.63
2018-07-07T09:36:11.041Z,15.20
2018-07-07T09:38:39.228Z,8.00
2018-07-07T09:41:11.458Z,6.75
2018-07-07T09:43:40.573Z,12.78
2018-07-07T09:46:14.769Z,11.20
2018-07-07T09:48:46.270Z,13.90
2018-07-07T09:51:21.133Z,15.48
2018-07-07T09:53:51.919Z,8.88
2018-07-07T09:56:20.240Z,7.50
2018-07-07T09:58:49.598Z,7.25
2018-07-07T10:01:20.046Z,8.53
2018-07-07T10:03:48.738Z,7.03
2018-07-07T10:06:21.082Z,10.05
2018-07-07T10:08:50.345Z,6.17
2018-07-07T10:11:23.347Z,8.03
2018-07-07T10:13:52.124Z,7.40
2018-07-07T10:16:25.786Z,10.40
2018-07-07T10:18:54.743Z,12.00
2018-07-07T10:21:28.766Z,7.55
2018-07-07T10:24:07.316Z,7.35
2018-07-07T10:26:35.529Z,6.92
2018-07-07T10:29:07.100Z,7.12
2018-07-07T10:31:37.316Z,4.55
2018-07-07T10:34:06.604Z,3.85
2018-07-07T10:36:38.581Z,5.22
2018-07-07T10:39:08.177Z,6.37
2018-07-07T10:41:44.570Z,7.65
2018-07-07T10:44:14.581Z,4.67
2018-07-07T10:46:47.402Z,4.05
2018-07-07T10:49:15.992Z,6.72
2018-07-07T10:51:47.181Z,5.75
2018-07-07T10:54:16.090Z,9.48
2018-07-07T10:56:57.579Z,6.17
2018-07-07T10:59:31.614Z,5.45
2018-07-07T11:02:00.184Z,4.42
2018-07-07T11:04:29.069Z,4.95
2018-07-07T11:06:58.233Z,9.10
2018-07-07T11:09:29.328Z,10.18
2018-07-07T11:11:58.489Z,5.60
2018-07-07T11:14:26.894Z,5.47
2018-07-07T11:17:00.797Z,17.52
2018-07-07T11:19:29.291Z,9.13
2018-07-07T11:22:02.867Z,7.35
2018-07-07T11:24:32.611Z,3.30
2018-07-07T11:27:13.667Z,9.43
2018-07-07T11:29:44.940Z,8.38
2018-07-07T11:32:13.900Z,4.75
2018-07-07T11:34:42.327Z,7.40
2018-07-07T11:37:12.471Z,4.00
2018-07-07T11:39:41.153Z,7.22
2018-07-07T11:42:17.267Z,6.40
2018-07-07T11:44:45.711Z,6.25
2018-07-07T11:47:17.159Z,3.85
2018-07-07T11:49:46.108Z,4.97
2018-07-07T11:52:19.499Z,5.30
2018-07-07T11:54:47.674Z,4.90
2018-07-07T11:57:20.271Z,6.37
2018-07-07T11:59:50.191Z,3.15
2018-07-07T12:02:23.466Z,4.78
2018-07-07T12:04:52.421Z,6.37
2018-07-07T12:07:26.260Z,3.50
2018-07-07T12:09:55.139Z,4.37
2018-07-07T12:12:28.952Z,8.90
2018-07-07T12:14:57.689Z,4.35
2018-07-07T12:17:33.775Z,4.10
2018-07-07T12:20:02.291Z,6.12
2018-07-07T12:22:37.168Z,11.05
2018-07-07T12:25:06.188Z,6.45
2018-07-07T12:27:35.727Z,2.65
2018-07-07T12:30:04.616Z,3.67
2018-07-07T12:32:38.596Z,5.35
2018-07-07T12:35:07.188Z,6.35
2018-07-07T12:37:48.200Z,5.28
2018-07-07T12:40:16.980Z,4.33
2018-07-07T12:42:46.204Z,4.97
2018-07-07T12:45:14.571Z,4.65
2018-07-07T12:47:47.024Z,3.75
2018-07-07T12:50:16.521Z,4.03
2018-07-07T12:52:49.150Z,3.30
2018-07-07T12:55:18.173Z,3.65
2018-07-07T12:57:52.805Z,4.75
2018-07-07T13:00:21.374Z,1.98
2018-07-07T13:02:58.601Z,4.55
2018-07-07T13:05:27.129Z,4.20
2018-07-07T13:07:58.422Z,4.50
2018-07-07T13:10:28.181Z,2.40
2018-07-07T13:13:09.596Z,9.30
2018-07-07T13:15:38.097Z,2.37
2018-07-07T13:18:07.034Z,2.98
2018-07-07T13:20:36.368Z,6.33
2018-07-07T13:23:08.558Z,2.33
2018-07-07T13:25:37.407Z,5.60
2018-07-07T13:28:19.364Z,2.72
2018-07-07T13:30:49.243Z,2.95
2018-07-07T13:33:18.111Z,4.20
2018-07-07T13:35:46.631Z,4.55
2018-07-07T13:38:16.257Z,6.90
2018-07-07T13:40:44.606Z,7.00
2018-07-07T13:43:25.582Z,3.47
2018-07-07T13:45:56.147Z,5.05
2018-07-07T13:48:25.213Z,5.42
2018-07-07T13:50:54.509Z,3.65
2018-07-07T13:53:23.319Z,4.20
2018-07-07T13:55:51.559Z,4.25
2018-07-07T14:00:43.826Z,5.30
2018-07-07T14:03:13.122Z,7.05
2018-07-07T14:05:42.182Z,5.35
2018-07-07T14:08:11.223Z,4.67
2018-07-07T14:10:39.428Z,4.12
2018-07-07T14:13:08.419Z,4.00
2018-07-07T14:15:38.820Z,4.20
2018-07-07T14:18:08.318Z,6.12
2018-07-07T14:20:37.652Z,5.35
2018-07-07T14:23:06.430Z,3.67
2018-07-07T14:25:37.966Z,2.92
2018-07-07T14:28:06.211Z,7.55
2018-07-07T14:30:40.855Z,6.80
2018-07-07T14:33:09.973Z,7.03
2018-07-07T14:35:51.566Z,3.12
2018-07-07T14:38:20.638Z,8.98
2018-07-07T14:40:54.841Z,4.37
2018-07-07T14:43:24.201Z,3.35
2018-07-07T14:46:04.220Z,5.15
2018-07-07T14:48:34.037Z,4.55
2018-07-07T14:51:02.455Z,4.67
2018-07-07T14:53:31.551Z,3.83
2018-07-07T14:56:01.265Z,4.03
2018-07-07T14:58:30.020Z,5.08
2018-07-07T15:00:58.639Z,5.37
2018-07-07T15:03:27.817Z,4.62
2018-07-07T15:06:00.230Z,7.90
2018-07-07T15:08:29.103Z,17.65
2018-07-07T15:11:03.584Z,4.92
2018-07-07T15:13:32.123Z,7.03
2018-07-07T15:16:10.721Z,6.65
2018-07-07T15:18:39.555Z,4.78
2018-07-07T15:21:10.216Z,4.15
2018-07-07T15:23:39.303Z,3.00
2018-07-07T15:26:13.188Z,5.37
2018-07-07T15:28:42.276Z,3.42
2018-07-07T15:31:12.846Z,4.55
2018-07-07T15:33:41.851Z,5.78
2018-07-07T15:36:15.084Z,8.65
2018-07-07T15:38:43.836Z,4.20
2018-07-07T15:41:16.868Z,6.70
2018-07-07T15:43:45.506Z,5.67
2018-07-07T15:46:19.180Z,5.65
2018-07-07T15:48:47.757Z,5.08
2018-07-07T15:51:21.005Z,6.58
2018-07-07T15:53:49.166Z,7.05
2018-07-07T15:56:22.189Z,9.60
2018-07-07T15:58:50.615Z,8.98
2018-07-07T16:01:19.094Z,5.83
2018-07-07T16:03:47.665Z,5.28
2018-07-07T16:06:16.257Z,5.30
2018-07-07T16:08:44.492Z,5.45
2018-07-07T16:11:13.638Z,5.90
2018-07-07T16:13:43.477Z,7.00
2018-07-07T16:16:12.225Z,7.62
2018-07-07T16:18:42.195Z,10.88
2018-07-07T16:21:11.167Z,4.95
2018-07-07T16:23:39.383Z,5.85
2018-07-07T16:26:08.370Z,7.20
2018-07-07T16:28:41.361Z,5.25
2018-07-07T16:31:09.660Z,4.15
2018-07-07T16:33:52.116Z,5.60
2018-07-07T16:36:20.740Z,5.47
2018-07-07T16:38:55.285Z,5.25
2018-07-07T16:41:25.255Z,5.03
2018-07-07T16:43:55.150Z,9.90
2018-07-07T16:46:23.365Z,5.53
2018-07-07T16:48:52.831Z,5.92
2018-07-07T16:51:21.568Z,8.70
2018-07-07T16:53:53.964Z,3.62
2018-07-07T16:56:22.393Z,4.42
2018-07-07T16:58:56.769Z,6.95
2018-07-07T17:01:27.047Z,5.53
2018-07-07T17:03:59.749Z,5.28
2018-07-07T17:06:29.924Z,3.55
2018-07-07T17:09:02.120Z,4.70
2018-07-07T17:11:31.175Z,4.20
2018-07-07T17:14:04.589Z,6.95
2018-07-07T17:16:33.486Z,7.03
2018-07-07T17:19:11.109Z,6.28
2018-07-07T17:21:46.443Z,4.20
2018-07-07T17:24:16.099Z,6.25
2018-07-07T17:26:45.891Z,5.03
2018-07-07T17:29:14.980Z,9.40
2018-07-07T17:31:44.719Z,8.35
2018-07-07T17:34:16.404Z,4.00
2018-07-07T17:36:45.540Z,6.80
2018-07-07T17:39:21.051Z,6.15
2018-07-07T17:41:49.434Z,6.03
2018-07-07T17:44:21.385Z,9.03
2018-07-07T17:46:50.848Z,6.12
2018-07-07T17:49:23.119Z,5.58
2018-07-07T17:51:51.575Z,6.10
2018-07-07T17:54:26.587Z,6.05
2018-07-07T17:56:54.783Z,4.30
2018-07-07T17:59:28.426Z,5.15
2018-07-07T18:01:57.167Z,4.17
2018-07-07T18:04:38.400Z,8.60
2018-07-07T18:07:06.887Z,3.22
2018-07-07T18:09:36.978Z,6.08
2018-07-07T18:12:05.828Z,6.47
2018-07-07T18:14:36.095Z,4.08
2018-07-07T18:17:05.232Z,4.62
2018-07-07T18:19:37.155Z,8.35
2018-07-07T18:22:06.189Z,5.58
2018-07-07T18:24:39.473Z,4.17
2018-07-07T18:27:08.231Z,8.83
2018-07-07T18:29:56.275Z,5.05
2018-07-07T18:32:24.750Z,4.55
2018-07-07T18:34:55.220Z,4.60
2018-07-07T18:37:24.612Z,3.83
2018-07-07T18:39:54.053Z,5.65
2018-07-07T18:42:22.544Z,4.15
2018-07-07T18:44:51.494Z,3.58
2018-07-07T18:47:19.668Z,4.92
2018-07-07T18:49:53.763Z,2.80
2018-07-07T18:52:24.837Z,4.12
2018-07-07T18:54:56.792Z,3.50
2018-07-07T18:57:25.447Z,5.87
2018-07-07T19:00:00.762Z,5.00
2018-07-07T19:02:29.316Z,5.28
2018-07-07T19:05:10.115Z,4.03
2018-07-07T19:07:38.655Z,3.33
2018-07-07T19:10:07.037Z,8.17
2018-07-07T19:12:35.641Z,6.50
2018-07-07T19:15:19.610Z,4.50
2018-07-07T19:17:48.567Z,4.33
2018-07-07T19:20:22.811Z,6.00
2018-07-07T19:23:00.895Z,4.10
2018-07-07T19:25:35.179Z,7.60
2018-07-07T19:28:04.210Z,4.23
2018-07-07T19:30:32.578Z,3.70
2018-07-07T19:33:06.395Z,5.97
2018-07-07T19:35:40.228Z,3.10
2018-07-07T19:38:09.121Z,3.50
2018-07-07T19:40:38.446Z,4.23
2018-07-07T19:43:07.096Z,2.60
2018-07-07T19:45:37.585Z,6.47
2018-07-07T19:48:06.406Z,5.50
2018-07-07T19:50:35.505Z,3.67
2018-07-07T19:53:06.306Z,5.47
2018-07-07T19:55:35.197Z,3.73
2018-07-07T19:58:04.856Z,4.20
2018-07-07T20:00:48.932Z,4.07
2018-07-07T20:03:18.553Z,4.17
2018-07-07T20:05:47.715Z,6.37
2018-07-07T20:08:17.309Z,3.33
2018-07-07T20:10:46.525Z,3.60
2018-07-07T20:13:17.167Z,4.97
2018-07-07T20:16:16.037Z,2.83
2018-07-07T20:19:01.028Z,3.13
2018-07-07T20:21:46.308Z,5.57
2018-07-07T20:24:15.277Z,7.67
2018-07-07T20:26:51.284Z,20.77
2018-07-07T20:29:21.388Z,16.97
2018-07-07T20:31:51.672Z,10.43
2018-07-07T20:34:27.658Z,15.33
2018-07-07T20:36:59.413Z,8.30
2018-07-07T20:39:28.126Z,9.53
2018-07-07T20:41:57.017Z,6.73
2018-07-07T20:44:25.732Z,7.53
2018-07-07T20:46:56.108Z,5.33
2018-07-07T20:49:25.631Z,5.70
2018-07-07T20:51:58.804Z,5.33
2018-07-07T20:54:27.519Z,6.37
2018-07-07T20:57:00.248Z,6.70
2018-07-07T20:59:29.423Z,8.00
2018-07-07T21:02:07.220Z,9.00
2018-07-07T21:04:36.167Z,6.23
2018-07-07T21:07:08.484Z,8.97
2018-07-07T21:09:37.160Z,8.77
2018-07-07T21:12:11.019Z,5.30
2018-07-07T21:14:43.906Z,5.97
2018-07-07T21:17:15.143Z,7.20
2018-07-07T21:19:46.634Z,10.20
2018-07-07T21:22:16.403Z,8.40
2018-07-07T21:24:50.927Z,7.67
2018-07-07T21:27:19.376Z,6.90
2018-07-07T21:29:49.083Z,3.53
2018-07-07T21:32:22.579Z,11.90
2018-07-07T21:34:51.971Z,9.10
2018-07-07T21:37:22.192Z,6.20
2018-07-07T21:39:51.618Z,5.97
2018-07-07T21:42:25.585Z,3.50
2018-07-07T21:44:55.231Z,11.00
2018-07-07T21:47:27.675Z,8.77
2018-07-07T21:49:56.855Z,4.63
2018-07-07T21:52:39.693Z,11.27
2018-07-07T21:55:11.865Z,10.37
2018-07-07T21:57:47.103Z,5.90
2018-07-07T22:00:22.312Z,5.13
2018-07-07T22:02:56.342Z,9.10
2018-07-07T22:05:34.717Z,5.13
2018-07-07T22:08:07.958Z,8.73
2018-07-07T22:10:38.523Z,8.93
2018-07-07T22:13:07.167Z,11.37
2018-07-07T22:15:40.224Z,12.10
2018-07-07T22:18:10.437Z,7.17
2018-07-07T22:20:51.177Z,13.20
2018-07-07T22:23:23.045Z,8.27
2018-07-07T22:25:52.560Z,10.83
2018-07-07T22:28:21.661Z,7.50
2018-07-07T22:30:51.501Z,7.63
2018-07-07T22:33:25.021Z,5.13
2018-07-07T22:35:59.193Z,10.63
2018-07-07T22:38:32.915Z,8.20
2018-07-07T22:41:01.849Z,8.57
2018-07-07T22:43:31.018Z,5.83
2018-07-07T22:46:00.604Z,7.90
2018-07-07T22:48:30.515Z,10.03
2018-07-07T22:51:02.308Z,14.30
2018-07-07T22:53:32.172Z,8.10
2018-07-07T22:56:04.153Z,4.90
2018-07-07T22:58:32.390Z,11.87
2018-07-07T23:01:15.886Z,6.93
2018-07-07T23:03:44.655Z,4.83
2018-07-07T23:06:13.664Z,7.83
2018-07-07T23:08:42.196Z,3.17
2018-07-07T23:11:13.828Z,4.23
2018-07-07T23:13:42.815Z,2.20
2018-07-07T23:16:16.525Z,4.13
2018-07-07T23:18:45.351Z,3.47
2018-07-07T23:21:17.086Z,4.73
2018-07-07T23:23:46.136Z,3.13
2018-07-07T23:26:19.163Z,2.83
2018-07-07T23:28:48.215Z,5.30
2018-07-07T23:31:21.828Z,3.80
2018-07-07T23:33:50.560Z,4.50
2018-07-07T23:36:23.562Z,3.27
2018-07-07T23:43:12.444Z,3.23
2018-07-07T23:45:41.932Z,2.17
2018-07-07T23:48:10.360Z,4.43
2018-07-07T23:50:39.238Z,3.60
2018-07-07T23:53:08.096Z,3.90
2018-07-07T23:55:37.536Z,3.23
2018-07-07T23:58:05.991Z,3.20
